createdAt,value
2016-12-16T00:00:52.755Z,1031.1
2016-12-16T00:01:55.698Z,1031.1
2016-12-16T00:02:59.145Z,1031.1
2016-12-16T00:04:02.082Z,1031.1
2016-12-16T00:05:05.525Z,1031.1
2016-12-16T00:06:08.468Z,1031.1
2016-12-16T00:07:11.923Z,1031.1
2016-12-16T00:08:14.869Z,1031
2016-12-16T00:09:18.318Z,1031
2016-12-16T00:10:21.416Z,1031
2016-12-16T00:11:24.369Z,1031
2016-12-16T00:12:27.822Z,1031
2016-12-16T00:13:30.762Z,1031
2016-12-16T00:14:34.206Z,1031
2016-12-16T00:15:37.149Z,1031
2016-12-16T00:16:40.597Z,1031
2016-12-16T00:17:43.538Z,1031
2016-12-16T00:18:46.983Z,1031
2016-12-16T00:19:49.951Z,1031
2016-12-16T00:20:52.897Z,1031
2016-12-16T00:21:56.341Z,1031
2016-12-16T00:22:59.283Z,1031
2016-12-16T00:24:02.735Z,1031
2016-12-16T00:25:05.686Z,1030.9
2016-12-16T00:26:08.763Z,1030.9
2016-12-16T00:27:12.214Z,1030.9
2016-12-16T00:28:15.160Z,1031
2016-12-16T00:29:18.612Z,1030.9
2016-12-16T00:30:21.553Z,1031
2016-12-16T00:31:24.648Z,1031
2016-12-16T00:32:28.096Z,1031
2016-12-16T00:33:31.037Z,1030.9
2016-12-16T00:34:34.490Z,1030.9
2016-12-16T00:35:37.443Z,1031
2016-12-16T00:36:40.899Z,1030.9
2016-12-16T00:37:43.845Z,1031
2016-12-16T00:38:47.293Z,1031
2016-12-16T00:39:50.235Z,1031
2016-12-16T00:40:53.178Z,1031
2016-12-16T00:41:56.624Z,1031
2016-12-16T00:42:59.574Z,1031
2016-12-16T00:44:03.025Z,1031
2016-12-16T00:45:05.966Z,1031
2016-12-16T00:47:12.321Z,1031.1
2016-12-16T00:48:15.771Z,1031.1
2016-12-16T00:49:18.712Z,1031.1
2016-12-16T00:50:22.157Z,1031.1
2016-12-16T00:51:25.111Z,1031
2016-12-16T00:52:28.555Z,1031
2016-12-16T00:53:31.499Z,1031
2016-12-16T00:54:34.442Z,1031.1
2016-12-16T00:55:37.894Z,1031.1
2016-12-16T00:56:40.840Z,1031.2
2016-12-16T00:57:44.287Z,1031.1
2016-12-16T00:58:47.233Z,1031.2
2016-12-16T00:59:50.679Z,1031.2
2016-12-16T01:00:53.626Z,1031.2
2016-12-16T01:01:57.081Z,1031.2
2016-12-16T01:03:00.024Z,1031.2
2016-12-16T01:04:03.472Z,1031.2
2016-12-16T01:05:06.422Z,1031.2
2016-12-16T01:06:09.367Z,1031.2
2016-12-16T01:07:12.816Z,1031.2
2016-12-16T01:08:15.766Z,1031.3
2016-12-16T01:09:19.217Z,1031.3
2016-12-16T01:10:22.162Z,1031.3
2016-12-16T01:11:25.614Z,1031.3
2016-12-16T01:12:28.584Z,1031.3
2016-12-16T01:13:31.528Z,1031.4
2016-12-16T01:14:34.978Z,1031.4
2016-12-16T01:15:37.929Z,1031.4
2016-12-16T01:16:41.380Z,1031.4
2016-12-16T01:17:44.328Z,1031.4
2016-12-16T01:18:47.780Z,1031.4
2016-12-16T01:19:50.726Z,1031.4
2016-12-16T01:20:54.174Z,1031.4
2016-12-16T01:21:57.116Z,1031.3
2016-12-16T01:23:00.062Z,1031.4
2016-12-16T01:24:03.514Z,1031.4
2016-12-16T01:25:06.457Z,1031.4
2016-12-16T01:26:09.898Z,1031.3
2016-12-16T01:27:12.843Z,1031.3
2016-12-16T01:28:16.301Z,1031.3
2016-12-16T01:29:19.249Z,1031.4
2016-12-16T01:30:22.690Z,1031.4
2016-12-16T01:31:25.636Z,1031.4
2016-12-16T01:32:28.587Z,1031.4
2016-12-16T01:33:32.031Z,1031.4
2016-12-16T01:35:38.394Z,1031.4
2016-12-16T01:36:41.336Z,1031.3
2016-12-16T01:37:44.787Z,1031.4
2016-12-16T01:38:47.728Z,1031.4
2016-12-16T01:39:51.181Z,1031.3
2016-12-16T01:40:54.125Z,1031.4
2016-12-16T01:41:57.573Z,1031.4
2016-12-16T01:43:00.522Z,1031.4
2016-12-16T01:44:03.472Z,1031.4
2016-12-16T01:45:06.918Z,1031.4
2016-12-16T01:46:09.865Z,1031.4
2016-12-16T01:47:13.316Z,1031.4
2016-12-16T01:48:16.268Z,1031.4
2016-12-16T01:49:19.714Z,1031.4
2016-12-16T01:50:22.661Z,1031.4
2016-12-16T01:51:25.606Z,1031.4
2016-12-16T01:52:29.055Z,1031.4
2016-12-16T01:53:32.000Z,1031.4
2016-12-16T01:54:35.448Z,1031.4
2016-12-16T01:55:38.397Z,1031.4
2016-12-16T01:56:41.846Z,1031.4
2016-12-16T01:57:44.795Z,1031.4
2016-12-16T01:58:47.743Z,1031.4
2016-12-16T01:59:51.189Z,1031.4
2016-12-16T02:00:54.136Z,1031.4
2016-12-16T02:01:57.585Z,1031.4
2016-12-16T02:03:00.535Z,1031.4
2016-12-16T02:04:03.986Z,1031.4
2016-12-16T02:05:06.929Z,1031.4
2016-12-16T02:06:10.376Z,1031.4
2016-12-16T02:07:13.320Z,1031.4
2016-12-16T02:08:16.266Z,1031.4
2016-12-16T02:09:19.716Z,1031.4
2016-12-16T02:10:22.661Z,1031.4
2016-12-16T02:11:26.112Z,1031.4
2016-12-16T02:12:29.056Z,1031.4
2016-12-16T02:13:32.510Z,1031.4
2016-12-16T02:14:35.484Z,1031.5
2016-12-16T02:15:38.429Z,1031.4
2016-12-16T02:16:41.878Z,1031.5
2016-12-16T02:17:44.823Z,1031.4
2016-12-16T02:18:48.287Z,1031.4
2016-12-16T02:19:51.230Z,1031.4
2016-12-16T02:20:54.672Z,1031.4
2016-12-16T02:21:57.618Z,1031.4
2016-12-16T02:23:00.566Z,1031.5
2016-12-16T02:24:04.016Z,1031.5
2016-12-16T02:25:06.956Z,1031.4
2016-12-16T02:26:10.408Z,1031.5
2016-12-16T02:27:13.355Z,1031.4
2016-12-16T02:28:16.806Z,1031.5
2016-12-16T02:29:19.755Z,1031.5
2016-12-16T02:30:22.700Z,1031.5
2016-12-16T02:31:26.153Z,1031.5
2016-12-16T02:32:29.093Z,1031.5
2016-12-16T02:33:32.541Z,1031.5
2016-12-16T02:34:35.483Z,1031.5
2016-12-16T02:35:38.963Z,1031.5
2016-12-16T02:36:41.913Z,1031.5
2016-12-16T02:37:44.854Z,1031.5
2016-12-16T02:38:48.300Z,1031.5
2016-12-16T02:39:51.248Z,1031.5
2016-12-16T02:40:54.708Z,1031.4
2016-12-16T02:41:57.653Z,1031.5
2016-12-16T02:43:01.101Z,1031.5
2016-12-16T02:44:04.042Z,1031.5
2016-12-16T02:45:07.023Z,1031.5
2016-12-16T02:46:10.465Z,1031.5
2016-12-16T02:47:13.413Z,1031.5
2016-12-16T02:48:16.874Z,1031.5
2016-12-16T02:49:19.814Z,1031.5
2016-12-16T02:50:23.259Z,1031.6
2016-12-16T02:51:26.213Z,1031.5
2016-12-16T02:52:29.155Z,1031.6
2016-12-16T02:53:32.610Z,1031.5
2016-12-16T02:54:35.555Z,1031.5
2016-12-16T02:55:39.018Z,1031.4
2016-12-16T02:56:41.962Z,1031.5
2016-12-16T02:58:48.318Z,1031.5
2016-12-16T02:59:51.779Z,1031.4
2016-12-16T03:00:54.724Z,1031.5
2016-12-16T03:01:57.665Z,1031.5
2016-12-16T03:03:01.113Z,1031.4
2016-12-16T03:04:04.054Z,1031.5
2016-12-16T03:05:07.498Z,1031.5
2016-12-16T03:06:10.441Z,1031.5
2016-12-16T03:07:13.895Z,1031.5
2016-12-16T03:08:16.842Z,1031.4
2016-12-16T03:09:19.815Z,1031.5
2016-12-16T03:10:23.262Z,1031.5
2016-12-16T03:11:26.207Z,1031.5
2016-12-16T03:12:29.656Z,1031.5
2016-12-16T03:13:32.605Z,1031.5
2016-12-16T03:14:36.054Z,1031.4
2016-12-16T03:15:39.003Z,1031.4
2016-12-16T03:16:42.451Z,1031.5
2016-12-16T03:17:45.392Z,1031.5
2016-12-16T03:18:48.334Z,1031.5
2016-12-16T03:19:51.791Z,1031.5
2016-12-16T03:20:54.775Z,1031.5
2016-12-16T03:21:58.221Z,1031.5
2016-12-16T03:23:01.160Z,1031.5
2016-12-16T03:24:04.607Z,1031.5
2016-12-16T03:25:07.546Z,1031.5
2016-12-16T03:26:10.496Z,1031.5
2016-12-16T03:27:13.943Z,1031.5
2016-12-16T03:28:16.888Z,1031.4
2016-12-16T03:29:20.333Z,1031.4
2016-12-16T03:30:23.274Z,1031.5
2016-12-16T03:32:29.627Z,1031.5
2016-12-16T03:33:33.072Z,1031.4
2016-12-16T03:34:36.017Z,1031.4
2016-12-16T03:35:38.966Z,1031.4
2016-12-16T03:36:42.410Z,1031.4
2016-12-16T03:37:45.355Z,1031.5
2016-12-16T03:38:48.868Z,1031.4
2016-12-16T03:39:51.814Z,1031.4
2016-12-16T03:41:58.169Z,1031.5
2016-12-16T03:43:01.111Z,1031.4
2016-12-16T03:44:04.564Z,1031.4
2016-12-16T03:45:07.507Z,1031.4
2016-12-16T03:46:10.958Z,1031.5
2016-12-16T03:47:13.901Z,1031.4
2016-12-16T03:48:17.342Z,1031.4
2016-12-16T03:49:20.292Z,1031.5
2016-12-16T03:50:23.246Z,1031.5
2016-12-16T03:51:26.693Z,1031.5
2016-12-16T03:52:29.637Z,1031.5
2016-12-16T03:53:33.095Z,1031.5
2016-12-16T03:54:36.040Z,1031.5
2016-12-16T03:55:39.489Z,1031.6
2016-12-16T03:56:42.432Z,1031.6
2016-12-16T03:57:45.875Z,1031.5
2016-12-16T03:58:48.812Z,1031.6
2016-12-16T03:59:51.744Z,1031.6
2016-12-16T04:00:55.191Z,1031.5
2016-12-16T04:01:58.139Z,1031.6
2016-12-16T04:03:01.583Z,1031.6
2016-12-16T04:04:04.522Z,1031.6
2016-12-16T04:05:07.598Z,1031.6
2016-12-16T04:06:11.039Z,1031.6
2016-12-16T04:07:13.984Z,1031.6
2016-12-16T04:08:17.424Z,1031.7
2016-12-16T04:09:20.365Z,1031.7
2016-12-16T04:10:23.310Z,1031.7
2016-12-16T04:11:26.757Z,1031.7
2016-12-16T04:12:29.695Z,1031.7
2016-12-16T04:13:33.151Z,1031.7
2016-12-16T04:14:36.101Z,1031.7
2016-12-16T04:15:39.540Z,1031.7
2016-12-16T04:16:42.477Z,1031.7
2016-12-16T04:17:45.423Z,1031.8
2016-12-16T04:18:48.868Z,1031.7
2016-12-16T04:19:51.808Z,1031.7
2016-12-16T04:20:55.251Z,1031.8
2016-12-16T04:21:58.352Z,1031.7
2016-12-16T04:23:01.295Z,1031.8
2016-12-16T04:24:04.736Z,1031.8
2016-12-16T04:25:07.678Z,1031.9
2016-12-16T04:26:11.126Z,1031.8
2016-12-16T04:27:14.062Z,1031.8
2016-12-16T04:28:17.507Z,1031.8
2016-12-16T04:29:20.447Z,1031.8
2016-12-16T04:30:23.384Z,1031.8
2016-12-16T04:31:26.823Z,1031.8
2016-12-16T04:32:29.770Z,1031.8
2016-12-16T04:33:33.213Z,1031.8
2016-12-16T04:34:36.154Z,1031.8
2016-12-16T04:35:39.602Z,1031.8
2016-12-16T04:36:42.537Z,1031.9
2016-12-16T04:37:45.477Z,1031.8
2016-12-16T04:38:48.918Z,1031.8
2016-12-16T04:39:51.860Z,1031.8
2016-12-16T04:40:55.307Z,1031.8
2016-12-16T04:41:58.257Z,1031.8
2016-12-16T04:44:04.613Z,1031.7
2016-12-16T04:45:07.551Z,1031.8
2016-12-16T04:46:10.991Z,1031.8
2016-12-16T04:47:13.938Z,1031.8
2016-12-16T04:48:17.380Z,1031.8
2016-12-16T04:49:20.350Z,1031.8
2016-12-16T04:51:26.712Z,1031.9
2016-12-16T04:52:29.660Z,1031.8
2016-12-16T04:53:33.104Z,1031.8
2016-12-16T04:54:36.045Z,1031.8
2016-12-16T04:55:39.485Z,1031.9
2016-12-16T04:56:42.421Z,1031.9
2016-12-16T04:57:45.867Z,1031.9
2016-12-16T04:58:48.802Z,1031.9
2016-12-16T04:59:51.744Z,1031.9
2016-12-16T05:00:55.182Z,1031.9
2016-12-16T05:01:58.127Z,1031.9
2016-12-16T05:03:01.572Z,1031.9
2016-12-16T05:04:04.519Z,1031.9
2016-12-16T05:05:07.967Z,1031.8
2016-12-16T05:06:10.908Z,1031.9
2016-12-16T05:07:13.845Z,1031.9
2016-12-16T05:08:17.290Z,1031.9
2016-12-16T05:09:20.233Z,1031.9
2016-12-16T05:10:23.352Z,1031.9
2016-12-16T05:11:26.791Z,1031.9
2016-12-16T05:12:29.733Z,1031.9
2016-12-16T05:14:36.088Z,1031.9
2016-12-16T05:15:39.030Z,1031.9
2016-12-16T05:16:42.477Z,1031.9
2016-12-16T05:17:45.414Z,1032
2016-12-16T05:18:48.858Z,1032
2016-12-16T05:19:51.794Z,1032
2016-12-16T05:20:55.244Z,1032
2016-12-16T05:21:58.187Z,1032
2016-12-16T05:24:04.540Z,1032
2016-12-16T05:25:07.474Z,1032
2016-12-16T05:26:10.930Z,1032
2016-12-16T05:27:13.869Z,1032
2016-12-16T05:28:17.315Z,1032
2016-12-16T05:29:20.252Z,1032
2016-12-16T05:30:23.194Z,1032
2016-12-16T05:31:26.634Z,1032
2016-12-16T05:32:29.578Z,1032
2016-12-16T05:33:33.022Z,1031.9
2016-12-16T05:34:35.961Z,1032
2016-12-16T05:35:39.408Z,1031.9
2016-12-16T05:36:42.349Z,1032
2016-12-16T05:37:45.286Z,1032
2016-12-16T05:38:48.728Z,1031.9
2016-12-16T05:40:55.083Z,1032
2016-12-16T05:41:58.021Z,1032
2016-12-16T05:43:01.461Z,1032
2016-12-16T05:44:04.400Z,1032
2016-12-16T05:45:07.341Z,1032
2016-12-16T05:46:10.785Z,1032
2016-12-16T05:47:13.734Z,1032
2016-12-16T05:48:17.175Z,1032
2016-12-16T05:49:20.139Z,1032
2016-12-16T05:50:23.580Z,1032
2016-12-16T05:51:26.521Z,1032
2016-12-16T05:52:29.462Z,1032
2016-12-16T05:53:32.903Z,1032
2016-12-16T05:54:35.844Z,1032
2016-12-16T05:55:39.291Z,1032
2016-12-16T05:56:42.229Z,1032
2016-12-16T05:57:45.174Z,1031.9
2016-12-16T05:58:48.620Z,1032
2016-12-16T05:59:51.700Z,1032
2016-12-16T06:00:54.634Z,1032
2016-12-16T06:01:58.080Z,1032
2016-12-16T06:03:01.019Z,1032
2016-12-16T06:04:04.462Z,1032
2016-12-16T06:05:07.405Z,1032
2016-12-16T06:06:10.849Z,1032
2016-12-16T06:07:13.789Z,1032
2016-12-16T06:08:16.723Z,1032
2016-12-16T06:09:20.164Z,1032
2016-12-16T06:10:23.106Z,1032
2016-12-16T06:11:26.549Z,1032
2016-12-16T06:12:29.487Z,1032
2016-12-16T06:13:32.927Z,1032
2016-12-16T06:14:35.864Z,1032.1
2016-12-16T06:15:38.806Z,1032
2016-12-16T06:17:45.159Z,1032.1
2016-12-16T06:18:48.602Z,1032.1
2016-12-16T06:19:51.538Z,1032.1
2016-12-16T06:20:54.983Z,1032.1
2016-12-16T06:21:57.917Z,1032.1
2016-12-16T06:23:00.852Z,1032.1
2016-12-16T06:24:04.307Z,1032.1
2016-12-16T06:25:07.249Z,1032.1
2016-12-16T06:26:10.697Z,1032.1
2016-12-16T06:27:13.640Z,1032.1
2016-12-16T06:28:16.579Z,1032.1
2016-12-16T06:29:20.023Z,1032.1
2016-12-16T06:30:22.960Z,1032.1
2016-12-16T06:31:26.401Z,1032.1
2016-12-16T06:32:29.347Z,1032.1
2016-12-16T06:33:32.819Z,1032.1
2016-12-16T06:34:35.901Z,1032.1
2016-12-16T06:35:38.839Z,1032.1
2016-12-16T06:36:41.783Z,1032.1
2016-12-16T06:37:45.228Z,1032.1
2016-12-16T06:38:48.171Z,1032.1
2016-12-16T06:39:51.611Z,1032.1
2016-12-16T06:40:54.552Z,1032.1
2016-12-16T06:41:57.999Z,1032.2
2016-12-16T06:43:00.939Z,1032.2
2016-12-16T06:45:07.423Z,1032.2
2016-12-16T06:46:10.366Z,1032.2
2016-12-16T06:47:13.308Z,1032.2
2016-12-16T06:48:16.754Z,1032.2
2016-12-16T06:50:23.107Z,1032.1
2016-12-16T06:51:26.296Z,1032.1
2016-12-16T06:52:29.235Z,1032.2
2016-12-16T06:53:32.175Z,1032.1
2016-12-16T06:54:35.614Z,1032.2
2016-12-16T06:55:38.551Z,1032.1
2016-12-16T06:56:41.994Z,1032.1
2016-12-16T06:57:44.929Z,1032.2
2016-12-16T06:58:48.374Z,1032.2
2016-12-16T06:59:51.317Z,1032.2
2016-12-16T07:00:54.261Z,1032.2
2016-12-16T07:01:57.700Z,1032.2
2016-12-16T07:03:00.645Z,1032.2
2016-12-16T07:04:03.725Z,1032.2
2016-12-16T07:05:07.166Z,1032.2
2016-12-16T07:06:10.103Z,1032.2
2016-12-16T07:07:13.541Z,1032.2
2016-12-16T07:08:16.478Z,1032.2
2016-12-16T07:10:22.832Z,1032.2
2016-12-16T07:11:25.792Z,1032.2
2016-12-16T07:12:28.911Z,1032.2
2016-12-16T07:13:32.034Z,1032.2
2016-12-16T07:14:35.478Z,1032.3
2016-12-16T07:15:38.424Z,1032.3
2016-12-16T07:16:41.864Z,1032.3
2016-12-16T07:17:44.800Z,1032.3
2016-12-16T07:18:48.242Z,1032.3
2016-12-16T07:19:51.182Z,1032.2
2016-12-16T07:20:54.261Z,1032.2
2016-12-16T07:21:57.699Z,1032.2
2016-12-16T07:23:00.638Z,1032.3
2016-12-16T07:24:03.716Z,1032.3
2016-12-16T07:25:06.695Z,1032.3
2016-12-16T07:26:10.135Z,1032.3
2016-12-16T07:27:13.070Z,1032.3
2016-12-16T07:28:16.512Z,1032.3
2016-12-16T07:29:19.448Z,1032.3
2016-12-16T07:30:22.895Z,1032.3
2016-12-16T07:31:25.832Z,1032.3
2016-12-16T07:32:28.776Z,1032.4
2016-12-16T07:33:32.227Z,1032.4
2016-12-16T07:34:35.166Z,1032.4
2016-12-16T07:35:38.615Z,1032.4
2016-12-16T07:37:44.966Z,1032.4
2016-12-16T07:38:47.912Z,1032.4
2016-12-16T07:39:50.859Z,1032.4
2016-12-16T07:40:54.275Z,1032.4
2016-12-16T07:43:00.620Z,1032.4
2016-12-16T07:44:03.561Z,1032.5
2016-12-16T07:45:07.032Z,1032.5
2016-12-16T07:46:09.969Z,1032.5
2016-12-16T07:47:12.911Z,1032.5
2016-12-16T07:48:16.348Z,1032.5
2016-12-16T07:49:19.317Z,1032.5
2016-12-16T07:50:22.759Z,1032.5
2016-12-16T07:51:25.692Z,1032.6
2016-12-16T07:52:28.640Z,1032.6
2016-12-16T07:53:32.110Z,1032.6
2016-12-16T07:54:35.049Z,1032.6
2016-12-16T07:55:38.490Z,1032.6
2016-12-16T07:56:41.440Z,1032.6
2016-12-16T07:57:44.379Z,1032.6
2016-12-16T07:58:47.820Z,1032.6
2016-12-16T07:59:50.759Z,1032.6
2016-12-16T08:00:54.198Z,1032.6
2016-12-16T08:01:57.139Z,1032.6
2016-12-16T08:03:00.580Z,1032.7
2016-12-16T08:04:03.517Z,1032.6
2016-12-16T08:05:06.460Z,1032.6
2016-12-16T08:06:09.906Z,1032.6
2016-12-16T08:07:12.849Z,1032.6
2016-12-16T08:08:16.293Z,1032.6
2016-12-16T08:09:19.290Z,1032.6
2016-12-16T08:10:22.225Z,1032.6
2016-12-16T08:11:25.664Z,1032.6
2016-12-16T08:12:28.603Z,1032.6
2016-12-16T08:13:32.046Z,1032.6
2016-12-16T08:14:34.985Z,1032.6
2016-12-16T08:15:38.426Z,1032.7
2016-12-16T08:16:41.359Z,1032.7
2016-12-16T08:17:44.293Z,1032.7
2016-12-16T08:18:47.738Z,1032.7
2016-12-16T08:19:50.675Z,1032.8
2016-12-16T08:20:54.122Z,1032.8
2016-12-16T08:21:57.058Z,1032.7
2016-12-16T08:23:00.495Z,1032.7
2016-12-16T08:24:03.431Z,1032.7
2016-12-16T08:25:06.869Z,1032.8
2016-12-16T08:26:09.802Z,1032.7
2016-12-16T08:27:12.749Z,1032.8
2016-12-16T08:29:19.095Z,1032.8
2016-12-16T08:30:22.533Z,1032.8
2016-12-16T08:31:25.475Z,1032.8
2016-12-16T08:32:28.919Z,1032.7
2016-12-16T08:33:31.860Z,1032.8
2016-12-16T08:34:34.794Z,1032.8
2016-12-16T08:36:41.180Z,1032.8
2016-12-16T08:37:44.630Z,1032.8
2016-12-16T08:38:47.561Z,1032.8
2016-12-16T08:39:51.032Z,1032.9
2016-12-16T08:40:53.968Z,1032.9
2016-12-16T08:41:56.911Z,1032.9
2016-12-16T08:43:00.355Z,1032.9
2016-12-16T08:44:03.290Z,1032.9
2016-12-16T08:45:06.736Z,1032.9
2016-12-16T08:46:09.681Z,1032.9
2016-12-16T08:47:13.122Z,1032.9
2016-12-16T08:48:16.064Z,1032.9
2016-12-16T08:49:19.002Z,1032.9
2016-12-16T08:50:22.445Z,1032.9
2016-12-16T08:51:25.385Z,1032.9
2016-12-16T08:52:28.825Z,1032.9
2016-12-16T08:53:31.767Z,1032.9
2016-12-16T08:54:35.215Z,1032.9
2016-12-16T08:55:38.151Z,1032.9
2016-12-16T08:56:41.098Z,1033
2016-12-16T08:57:44.539Z,1032.9
2016-12-16T08:58:47.477Z,1032.9
2016-12-16T08:59:50.917Z,1032.9
2016-12-16T09:00:53.850Z,1032.9
2016-12-16T09:01:57.295Z,1032.9
2016-12-16T09:03:00.233Z,1032.9
2016-12-16T09:04:03.177Z,1032.9
2016-12-16T09:05:06.619Z,1032.9
2016-12-16T09:06:09.553Z,1032.9
2016-12-16T09:07:12.993Z,1032.9
2016-12-16T09:08:15.933Z,1032.9
2016-12-16T09:10:22.287Z,1032.9
2016-12-16T09:11:25.733Z,1032.9
2016-12-16T09:12:28.685Z,1032.9
2016-12-16T09:13:31.626Z,1032.9
2016-12-16T09:14:35.071Z,1032.9
2016-12-16T09:15:38.007Z,1032.9
2016-12-16T09:16:41.450Z,1032.9
2016-12-16T09:17:44.390Z,1032.9
2016-12-16T09:18:47.835Z,1032.9
2016-12-16T09:19:50.769Z,1032.9
2016-12-16T09:20:53.703Z,1032.9
2016-12-16T09:21:57.151Z,1032.9
2016-12-16T09:23:00.090Z,1032.9
2016-12-16T09:24:03.536Z,1032.9
2016-12-16T09:25:06.473Z,1032.8
2016-12-16T09:27:13.075Z,1032.8
2016-12-16T09:28:16.011Z,1032.8
2016-12-16T09:29:19.450Z,1032.8
2016-12-16T09:30:22.627Z,1032.9
2016-12-16T09:31:25.825Z,1032.9
2016-12-16T09:32:28.762Z,1032.9
2016-12-16T09:33:31.700Z,1032.9
2016-12-16T09:34:35.138Z,1032.9
2016-12-16T09:35:38.074Z,1032.8
2016-12-16T09:36:41.512Z,1032.9
2016-12-16T09:37:44.444Z,1032.9
2016-12-16T09:38:47.882Z,1032.9
2016-12-16T09:39:50.820Z,1032.9
2016-12-16T09:40:54.263Z,1032.8
2016-12-16T09:41:57.197Z,1032.8
2016-12-16T09:43:00.643Z,1032.9
2016-12-16T09:44:03.592Z,1032.9
2016-12-16T09:45:06.562Z,1032.9
2016-12-16T09:46:10.005Z,1032.9
2016-12-16T09:47:12.941Z,1032.9
2016-12-16T09:48:16.405Z,1032.9
2016-12-16T09:49:19.344Z,1032.9
2016-12-16T09:50:22.379Z,1032.9
2016-12-16T09:51:25.814Z,1032.9
2016-12-16T09:52:28.759Z,1032.9
2016-12-16T09:53:32.201Z,1032.9
2016-12-16T09:54:35.138Z,1032.9
2016-12-16T09:55:38.591Z,1032.9
2016-12-16T09:56:41.528Z,1032.8
2016-12-16T09:57:44.968Z,1032.8
2016-12-16T09:58:48.126Z,1032.8
2016-12-16T09:59:50.925Z,1032.8
2016-12-16T10:00:54.059Z,1032.8
2016-12-16T10:01:57.505Z,1032.7
2016-12-16T10:03:00.439Z,1032.7
2016-12-16T10:04:03.879Z,1032.8
2016-12-16T10:05:06.820Z,1032.7
2016-12-16T10:06:10.262Z,1032.8
2016-12-16T10:07:13.197Z,1032.7
2016-12-16T10:08:16.640Z,1032.7
2016-12-16T10:09:19.580Z,1032.7
2016-12-16T10:11:25.933Z,1032.7
2016-12-16T10:12:28.877Z,1032.7
2016-12-16T10:13:32.327Z,1032.6
2016-12-16T10:14:35.263Z,1032.7
2016-12-16T10:15:38.705Z,1032.7
2016-12-16T10:16:41.640Z,1032.7
2016-12-16T10:17:45.085Z,1032.7
2016-12-16T10:18:48.020Z,1032.7
2016-12-16T10:19:51.459Z,1032.6
2016-12-16T10:20:54.399Z,1032.6
2016-12-16T10:21:57.843Z,1032.6
2016-12-16T10:23:00.776Z,1032.6
2016-12-16T10:24:03.719Z,1032.6
2016-12-16T10:25:07.171Z,1032.6
2016-12-16T10:26:10.109Z,1032.7
2016-12-16T10:27:13.549Z,1032.6
2016-12-16T10:28:16.487Z,1032.6
2016-12-16T10:29:19.931Z,1032.7
2016-12-16T10:30:22.875Z,1032.6
2016-12-16T10:31:26.325Z,1032.7
2016-12-16T10:32:29.265Z,1032.7
2016-12-16T10:33:32.714Z,1032.6
2016-12-16T10:34:35.650Z,1032.6
2016-12-16T10:35:38.585Z,1032.6
2016-12-16T10:36:42.027Z,1032.6
2016-12-16T10:37:44.969Z,1032.6
2016-12-16T10:38:48.410Z,1032.6
2016-12-16T10:39:51.353Z,1032.6
2016-12-16T10:41:57.703Z,1032.6
2016-12-16T10:43:01.146Z,1032.6
2016-12-16T10:44:04.082Z,1032.7
2016-12-16T10:45:07.529Z,1032.6
2016-12-16T10:46:10.467Z,1032.7
2016-12-16T10:47:13.910Z,1032.6
2016-12-16T10:48:16.846Z,1032.6
2016-12-16T10:49:20.293Z,1032.7
2016-12-16T10:50:23.228Z,1032.6
2016-12-16T10:51:26.303Z,1032.6
2016-12-16T10:52:29.742Z,1032.6
2016-12-16T10:53:32.681Z,1032.5
2016-12-16T10:54:36.125Z,1032.5
2016-12-16T10:55:39.062Z,1032.5
2016-12-16T10:56:42.503Z,1032.5
2016-12-16T10:57:45.446Z,1032.5
2016-12-16T10:58:48.382Z,1032.5
2016-12-16T10:59:51.819Z,1032.4
2016-12-16T11:00:54.759Z,1032.5
2016-12-16T11:01:58.204Z,1032.5
2016-12-16T11:03:01.141Z,1032.5
2016-12-16T11:04:04.590Z,1032.5
2016-12-16T11:05:07.527Z,1032.5
2016-12-16T11:06:10.969Z,1032.5
2016-12-16T11:07:13.912Z,1032.4
2016-12-16T11:08:17.351Z,1032.5
2016-12-16T11:09:20.283Z,1032.5
2016-12-16T11:10:23.724Z,1032.5
2016-12-16T11:11:26.665Z,1032.5
2016-12-16T11:12:30.113Z,1032.5
2016-12-16T11:13:33.060Z,1032.5
2016-12-16T11:14:35.998Z,1032.4
2016-12-16T11:15:39.444Z,1032.5
2016-12-16T11:16:42.386Z,1032.5
2016-12-16T11:17:45.825Z,1032.5
2016-12-16T11:18:48.772Z,1032.5
2016-12-16T11:19:52.223Z,1032.5
2016-12-16T11:20:55.163Z,1032.5
2016-12-16T11:21:58.605Z,1032.5
2016-12-16T11:23:01.540Z,1032.5
2016-12-16T11:24:04.983Z,1032.5
2016-12-16T11:25:07.924Z,1032.5
2016-12-16T11:26:11.369Z,1032.5
2016-12-16T11:27:14.300Z,1032.5
2016-12-16T11:28:17.740Z,1032.5
2016-12-16T11:29:20.676Z,1032.6
2016-12-16T11:30:23.614Z,1032.6
2016-12-16T11:31:27.059Z,1032.6
2016-12-16T11:32:30.001Z,1032.6
2016-12-16T11:33:33.441Z,1032.6
2016-12-16T11:34:36.387Z,1032.6
2016-12-16T11:35:39.827Z,1032.6
2016-12-16T11:36:42.771Z,1032.6
2016-12-16T11:37:46.213Z,1032.6
2016-12-16T11:38:49.160Z,1032.6
2016-12-16T11:39:52.600Z,1032.5
2016-12-16T11:40:55.535Z,1032.6
2016-12-16T11:41:58.985Z,1032.6
2016-12-16T11:43:01.924Z,1032.6
2016-12-16T11:44:05.367Z,1032.6
2016-12-16T11:45:08.308Z,1032.6
2016-12-16T11:46:11.247Z,1032.6
2016-12-16T11:47:14.693Z,1032.6
2016-12-16T11:48:17.633Z,1032.5
2016-12-16T11:49:21.076Z,1032.5
2016-12-16T11:50:24.016Z,1032.6
2016-12-16T11:51:27.454Z,1032.5
2016-12-16T11:52:30.393Z,1032.5
2016-12-16T11:53:33.843Z,1032.5
2016-12-16T11:54:36.779Z,1032.5
2016-12-16T11:55:40.223Z,1032.5
2016-12-16T11:56:43.162Z,1032.5
2016-12-16T11:57:46.600Z,1032.5
2016-12-16T11:58:49.699Z,1032.5
2016-12-16T11:59:52.636Z,1032.5
2016-12-16T12:00:56.116Z,1032.5
2016-12-16T12:01:59.048Z,1032.6
2016-12-16T12:03:02.491Z,1032.6
2016-12-16T12:04:05.430Z,1032.6
2016-12-16T12:06:11.780Z,1032.6
2016-12-16T12:07:15.222Z,1032.6
2016-12-16T12:08:18.162Z,1032.6
2016-12-16T12:09:21.600Z,1032.7
2016-12-16T12:10:24.540Z,1032.6
2016-12-16T12:11:27.992Z,1032.7
2016-12-16T12:12:30.935Z,1032.7
2016-12-16T12:13:33.883Z,1032.7
2016-12-16T12:14:37.325Z,1032.7
2016-12-16T12:15:40.273Z,1032.7
2016-12-16T12:16:43.716Z,1032.7
2016-12-16T12:17:46.652Z,1032.7
2016-12-16T12:18:50.227Z,1032.8
2016-12-16T12:19:53.167Z,1032.7
2016-12-16T12:20:56.109Z,1032.7
2016-12-16T12:21:59.580Z,1032.7
2016-12-16T12:23:02.517Z,1032.7
2016-12-16T12:24:05.960Z,1032.7
2016-12-16T12:25:08.898Z,1032.6
2016-12-16T12:26:12.341Z,1032.6
2016-12-16T12:27:15.281Z,1032.6
2016-12-16T12:28:18.717Z,1032.6
2016-12-16T12:29:21.654Z,1032.6
2016-12-16T12:30:25.098Z,1032.6
2016-12-16T12:31:28.039Z,1032.6
2016-12-16T12:32:31.542Z,1032.7
2016-12-16T12:33:34.484Z,1032.6
2016-12-16T12:34:37.923Z,1032.6
2016-12-16T12:35:40.857Z,1032.6
2016-12-16T12:36:43.799Z,1032.6
2016-12-16T12:37:47.238Z,1032.6
2016-12-16T12:38:50.178Z,1032.6
2016-12-16T12:39:53.623Z,1032.6
2016-12-16T12:40:56.563Z,1032.6
2016-12-16T12:42:00.008Z,1032.6
2016-12-16T12:43:02.946Z,1032.5
2016-12-16T12:45:09.290Z,1032.6
2016-12-16T12:46:12.729Z,1032.6
2016-12-16T12:47:15.670Z,1032.6
2016-12-16T12:48:19.112Z,1032.6
2016-12-16T12:49:22.047Z,1032.6
2016-12-16T12:50:25.487Z,1032.5
2016-12-16T12:51:28.425Z,1032.6
2016-12-16T12:52:31.873Z,1032.5
2016-12-16T12:53:34.949Z,1032.5
2016-12-16T12:54:37.896Z,1032.5
2016-12-16T12:55:41.472Z,1032.6
2016-12-16T12:56:44.411Z,1032.5
2016-12-16T12:57:47.863Z,1032.5
2016-12-16T12:58:50.793Z,1032.5
2016-12-16T12:59:54.236Z,1032.5
2016-12-16T13:00:57.179Z,1032.4
2016-12-16T13:02:00.118Z,1032.5
2016-12-16T13:03:03.557Z,1032.4
2016-12-16T13:04:06.497Z,1032.5
2016-12-16T13:05:09.943Z,1032.4
2016-12-16T13:06:12.878Z,1032.5
2016-12-16T13:07:16.317Z,1032.5
2016-12-16T13:08:19.252Z,1032.5
2016-12-16T13:09:22.687Z,1032.5
2016-12-16T13:10:25.627Z,1032.5
2016-12-16T13:11:29.069Z,1032.5
2016-12-16T13:12:32.004Z,1032.5
2016-12-16T13:13:35.456Z,1032.4
2016-12-16T13:15:41.805Z,1032.5
2016-12-16T13:16:44.743Z,1032.5
2016-12-16T13:17:48.184Z,1032.5
2016-12-16T13:18:51.125Z,1032.5
2016-12-16T13:19:54.570Z,1032.5
2016-12-16T13:20:57.505Z,1032.6
2016-12-16T13:22:00.945Z,1032.5
2016-12-16T13:23:03.884Z,1032.5
2016-12-16T13:24:07.324Z,1032.6
2016-12-16T13:25:10.261Z,1032.6
2016-12-16T13:26:13.700Z,1032.6
2016-12-16T13:27:16.636Z,1032.6
2016-12-16T13:28:20.078Z,1032.6
2016-12-16T13:29:23.015Z,1032.6
2016-12-16T13:30:26.464Z,1032.6
2016-12-16T13:31:29.401Z,1032.6
2016-12-16T13:32:32.838Z,1032.6
2016-12-16T13:33:35.781Z,1032.6
2016-12-16T13:34:39.223Z,1032.6
2016-12-16T13:35:42.161Z,1032.6
2016-12-16T13:36:45.275Z,1032.7
2016-12-16T13:37:48.718Z,1032.6
2016-12-16T13:38:51.655Z,1032.7
2016-12-16T13:39:55.095Z,1032.6